sensor_id;sensor_type;location;lat;lon;timestamp;temperature;humidity
8261;DHT22;64115;50.170;8.242;2023-02-26T00:00:29;-3.00;99.90
8261;DHT22;64115;50.170;8.242;2023-02-26T00:02:56;-3.00;99.90
8261;DHT22;64115;50.170;8.242;2023-02-26T00:05:23;-2.90;99.90
8261;DHT22;64115;50.170;8.242;2023-02-26T00:07:50;-2.90;99.90
8261;DHT22;64115;50.170;8.242;2023-02-26T00:10:17;-2.80;99.90
8261;DHT22;64115;50.170;8.242;2023-02-26T00:12:45;-2.80;99.90
8261;DHT22;64115;50.170;8.242;2023-02-26T00:15:15;-2.70;99.90
8261;DHT22;64115;50.170;8.242;2023-02-26T00:17:48;-2.60;99.90
8261;DHT22;64115;50.170;8.242;2023-02-26T00:20:18;-2.50;99.90
8261;DHT22;64115;50.170;8.242;2023-02-26T00:22:46;-2.40;99.90
8261;DHT22;64115;50.170;8.242;2023-02-26T00:25:13;-2.30;99.90
8261;DHT22;64115;50.170;8.242;2023-02-26T00:27:40;-2.30;99.90
8261;DHT22;64115;50.170;8.242;2023-02-26T00:30:09;-2.30;99.90
8261;DHT22;64115;50.170;8.242;2023-02-26T00:32:39;-2.30;99.90
8261;DHT22;64115;50.170;8.242;2023-02-26T00:35:08;-2.20;99.90
8261;DHT22;64115;50.170;8.242;2023-02-26T00:40:38;-2.10;99.90
8261;DHT22;64115;50.170;8.242;2023-02-26T00:43:08;-2.00;99.90
8261;DHT22;64115;50.170;8.242;2023-02-26T00:45:37;-2.00;99.90
8261;DHT22;64115;50.170;8.242;2023-02-26T00:48:27;-2.00;99.90
8261;DHT22;64115;50.170;8.242;2023-02-26T00:50:59;-2.00;99.90
8261;DHT22;64115;50.170;8.242;2023-02-26T00:53:31;-2.00;99.90
8261;DHT22;64115;50.170;8.242;2023-02-26T00:56:00;-2.00;99.90
8261;DHT22;64115;50.170;8.242;2023-02-26T00:58:27;-2.10;99.90
8261;DHT22;64115;50.170;8.242;2023-02-26T01:00:54;-2.00;99.90
8261;DHT22;64115;50.170;8.242;2023-02-26T01:03:23;-2.00;99.90
8261;DHT22;64115;50.170;8.242;2023-02-26T01:05:50;-1.90;99.90
8261;DHT22;64115;50.170;8.242;2023-02-26T01:08:20;-2.00;99.90
8261;DHT22;64115;50.170;8.242;2023-02-26T01:10:50;-1.90;99.90
8261;DHT22;64115;50.170;8.242;2023-02-26T01:13:17;-1.90;99.90
8261;DHT22;64115;50.170;8.242;2023-02-26T01:15:49;-1.90;99.90
8261;DHT22;64115;50.170;8.242;2023-02-26T01:18:22;-1.90;99.90
8261;DHT22;64115;50.170;8.242;2023-02-26T01:20:55;-2.00;99.90
8261;DHT22;64115;50.170;8.242;2023-02-26T01:23:25;-2.00;99.90
8261;DHT22;64115;50.170;8.242;2023-02-26T01:25:55;-2.00;99.90
8261;DHT22;64115;50.170;8.242;2023-02-26T01:28:24;-2.00;99.90
8261;DHT22;64115;50.170;8.242;2023-02-26T01:30:54;-2.00;99.90
8261;DHT22;64115;50.170;8.242;2023-02-26T01:33:30;-2.00;99.90
8261;DHT22;64115;50.170;8.242;2023-02-26T01:36:02;-2.00;99.90
8261;DHT22;64115;50.170;8.242;2023-02-26T01:38:40;-2.00;99.90
8261;DHT22;64115;50.170;8.242;2023-02-26T01:41:21;-1.90;99.90
8261;DHT22;64115;50.170;8.242;2023-02-26T01:43:59;-2.00;99.90
8261;DHT22;64115;50.170;8.242;2023-02-26T01:46:34;-2.00;99.90
8261;DHT22;64115;50.170;8.242;2023-02-26T01:49:07;-2.10;99.90
8261;DHT22;64115;50.170;8.242;2023-02-26T01:51:47;-2.00;99.90
8261;DHT22;64115;50.170;8.242;2023-02-26T01:54:17;-2.00;99.90
8261;DHT22;64115;50.170;8.242;2023-02-26T01:56:47;-2.10;99.90
8261;DHT22;64115;50.170;8.242;2023-02-26T01:59:16;-2.20;99.90
8261;DHT22;64115;50.170;8.242;2023-02-26T02:01:49;-2.20;99.90
8261;DHT22;64115;50.170;8.242;2023-02-26T02:04:19;-2.30;99.90
8261;DHT22;64115;50.170;8.242;2023-02-26T02:06:46;-2.30;99.90
8261;DHT22;64115;50.170;8.242;2023-02-26T02:09:13;-2.30;99.90
8261;DHT22;64115;50.170;8.242;2023-02-26T02:11:52;-2.40;99.90
8261;DHT22;64115;50.170;8.242;2023-02-26T02:14:26;-2.50;99.90
8261;DHT22;64115;50.170;8.242;2023-02-26T02:16:59;-2.60;99.90
8261;DHT22;64115;50.170;8.242;2023-02-26T02:22:58;-2.60;99.90
8261;DHT22;64115;50.170;8.242;2023-02-26T02:25:42;-2.60;99.90
8261;DHT22;64115;50.170;8.242;2023-02-26T02:28:23;-2.60;99.90
8261;DHT22;64115;50.170;8.242;2023-02-26T02:31:01;-2.70;99.90
8261;DHT22;64115;50.170;8.242;2023-02-26T02:33:35;-2.60;99.90
8261;DHT22;64115;50.170;8.242;2023-02-26T02:36:05;-2.50;99.90
8261;DHT22;64115;50.170;8.242;2023-02-26T02:38:37;-2.50;99.90
8261;DHT22;64115;50.170;8.242;2023-02-26T02:41:08;-2.50;99.90
8261;DHT22;64115;50.170;8.242;2023-02-26T02:43:38;-2.50;99.90
8261;DHT22;64115;50.170;8.242;2023-02-26T02:46:10;-2.50;99.90
8261;DHT22;64115;50.170;8.242;2023-02-26T02:48:42;-2.60;99.90
8261;DHT22;64115;50.170;8.242;2023-02-26T02:51:13;-2.60;99.90
8261;DHT22;64115;50.170;8.242;2023-02-26T02:53:44;-2.70;99.90
8261;DHT22;64115;50.170;8.242;2023-02-26T02:56:18;-2.80;99.90
8261;DHT22;64115;50.170;8.242;2023-02-26T02:58:51;-2.90;99.90
8261;DHT22;64115;50.170;8.242;2023-02-26T03:01:23;-2.90;99.90
8261;DHT22;64115;50.170;8.242;2023-02-26T03:03:56;-3.00;99.90
8261;DHT22;64115;50.170;8.242;2023-02-26T03:06:23;-3.10;99.90
8261;DHT22;64115;50.170;8.242;2023-02-26T03:08:51;-3.20;99.90
8261;DHT22;64115;50.170;8.242;2023-02-26T03:11:19;-3.20;99.90
8261;DHT22;64115;50.170;8.242;2023-02-26T03:13:46;-3.20;99.90
8261;DHT22;64115;50.170;8.242;2023-02-26T03:16:29;-3.30;99.90
8261;DHT22;64115;50.170;8.242;2023-02-26T03:19:06;-3.30;99.90
8261;DHT22;64115;50.170;8.242;2023-02-26T03:21:38;-3.40;99.90
8261;DHT22;64115;50.170;8.242;2023-02-26T03:24:15;-3.40;99.90
8261;DHT22;64115;50.170;8.242;2023-02-26T03:26:47;-3.40;99.90
8261;DHT22;64115;50.170;8.242;2023-02-26T03:29:24;-3.40;99.90
8261;DHT22;64115;50.170;8.242;2023-02-26T03:31:57;-3.40;99.90
8261;DHT22;64115;50.170;8.242;2023-02-26T03:34:27;-3.40;99.90
8261;DHT22;64115;50.170;8.242;2023-02-26T03:36:59;-3.30;99.90
8261;DHT22;64115;50.170;8.242;2023-02-26T03:39:30;-3.30;99.90
8261;DHT22;64115;50.170;8.242;2023-02-26T03:42:03;-3.30;99.90
8261;DHT22;64115;50.170;8.242;2023-02-26T03:44:35;-3.20;99.90
8261;DHT22;64115;50.170;8.242;2023-02-26T03:47:07;-3.20;99.90
8261;DHT22;64115;50.170;8.242;2023-02-26T03:49:37;-3.20;99.90
8261;DHT22;64115;50.170;8.242;2023-02-26T03:52:05;-3.10;99.90
8261;DHT22;64115;50.170;8.242;2023-02-26T03:54:36;-3.00;99.90
8261;DHT22;64115;50.170;8.242;2023-02-26T03:57:04;-3.00;99.90
8261;DHT22;64115;50.170;8.242;2023-02-26T03:59:32;-3.10;99.90
8261;DHT22;64115;50.170;8.242;2023-02-26T04:02:04;-3.10;99.90
8261;DHT22;64115;50.170;8.242;2023-02-26T04:04:34;-3.20;99.90
8261;DHT22;64115;50.170;8.242;2023-02-26T04:07:07;-3.10;99.90
8261;DHT22;64115;50.170;8.242;2023-02-26T04:09:35;-3.20;99.90
8261;DHT22;64115;50.170;8.242;2023-02-26T04:12:02;-3.10;99.90
8261;DHT22;64115;50.170;8.242;2023-02-26T04:14:29;-3.10;99.90
8261;DHT22;64115;50.170;8.242;2023-02-26T04:16:56;-3.10;99.90
8261;DHT22;64115;50.170;8.242;2023-02-26T04:19:24;-3.00;99.90
8261;DHT22;64115;50.170;8.242;2023-02-26T04:21:51;-2.90;99.90
8261;DHT22;64115;50.170;8.242;2023-02-26T04:24:18;-2.90;99.90
8261;DHT22;64115;50.170;8.242;2023-02-26T04:26:45;-2.80;99.90
8261;DHT22;64115;50.170;8.242;2023-02-26T04:29:12;-2.70;99.90
8261;DHT22;64115;50.170;8.242;2023-02-26T04:31:39;-2.70;99.90
8261;DHT22;64115;50.170;8.242;2023-02-26T04:34:06;-2.80;99.90
8261;DHT22;64115;50.170;8.242;2023-02-26T04:36:35;-2.80;99.90
8261;DHT22;64115;50.170;8.242;2023-02-26T04:39:02;-2.80;99.90
8261;DHT22;64115;50.170;8.242;2023-02-26T04:41:29;-2.80;99.90
8261;DHT22;64115;50.170;8.242;2023-02-26T04:43:55;-2.90;99.90
8261;DHT22;64115;50.170;8.242;2023-02-26T04:46:22;-3.00;99.90
8261;DHT22;64115;50.170;8.242;2023-02-26T04:48:49;-3.00;99.90
8261;DHT22;64115;50.170;8.242;2023-02-26T04:51:16;-3.20;99.90
8261;DHT22;64115;50.170;8.242;2023-02-26T04:53:45;-3.30;99.90
8261;DHT22;64115;50.170;8.242;2023-02-26T04:56:12;-3.40;99.90
8261;DHT22;64115;50.170;8.242;2023-02-26T04:58:39;-3.40;99.90
8261;DHT22;64115;50.170;8.242;2023-02-26T05:01:06;-3.50;99.90
8261;DHT22;64115;50.170;8.242;2023-02-26T05:03:33;-3.40;99.90
8261;DHT22;64115;50.170;8.242;2023-02-26T05:05:59;-3.40;99.90
8261;DHT22;64115;50.170;8.242;2023-02-26T05:08:26;-3.30;99.90
8261;DHT22;64115;50.170;8.242;2023-02-26T05:10:55;-3.30;99.90
8261;DHT22;64115;50.170;8.242;2023-02-26T05:13:22;-3.20;99.90
8261;DHT22;64115;50.170;8.242;2023-02-26T05:15:49;-3.20;99.90
8261;DHT22;64115;50.170;8.242;2023-02-26T05:18:16;-3.20;99.90
8261;DHT22;64115;50.170;8.242;2023-02-26T05:20:43;-3.10;99.90
8261;DHT22;64115;50.170;8.242;2023-02-26T05:23:10;-3.10;99.90
8261;DHT22;64115;50.170;8.242;2023-02-26T05:25:37;-3.10;99.90
8261;DHT22;64115;50.170;8.242;2023-02-26T05:28:05;-3.10;99.90
8261;DHT22;64115;50.170;8.242;2023-02-26T05:30:32;-3.10;99.90
8261;DHT22;64115;50.170;8.242;2023-02-26T05:32:59;-3.00;99.90
8261;DHT22;64115;50.170;8.242;2023-02-26T05:35:26;-3.10;99.90
8261;DHT22;64115;50.170;8.242;2023-02-26T05:37:53;-3.10;99.90
8261;DHT22;64115;50.170;8.242;2023-02-26T05:40:21;-3.10;99.90
8261;DHT22;64115;50.170;8.242;2023-02-26T05:42:48;-3.10;99.90
8261;DHT22;64115;50.170;8.242;2023-02-26T05:45:18;-3.10;99.90
8261;DHT22;64115;50.170;8.242;2023-02-26T05:47:45;-3.10;99.90
8261;DHT22;64115;50.170;8.242;2023-02-26T05:50:12;-3.20;99.90
8261;DHT22;64115;50.170;8.242;2023-02-26T05:52:39;-3.10;99.90
8261;DHT22;64115;50.170;8.242;2023-02-26T05:55:07;-3.10;99.90
8261;DHT22;64115;50.170;8.242;2023-02-26T05:57:35;-3.20;99.90
8261;DHT22;64115;50.170;8.242;2023-02-26T06:00:03;-3.20;99.90
8261;DHT22;64115;50.170;8.242;2023-02-26T06:02:32;-3.20;99.90
8261;DHT22;64115;50.170;8.242;2023-02-26T06:04:59;-3.20;99.90
8261;DHT22;64115;50.170;8.242;2023-02-26T06:07:26;-3.20;99.90
8261;DHT22;64115;50.170;8.242;2023-02-26T06:09:53;-3.20;99.90
8261;DHT22;64115;50.170;8.242;2023-02-26T06:12:20;-3.20;99.90
8261;DHT22;64115;50.170;8.242;2023-02-26T06:14:47;-3.20;99.90
8261;DHT22;64115;50.170;8.242;2023-02-26T06:17:14;-3.20;99.90
8261;DHT22;64115;50.170;8.242;2023-02-26T06:19:43;-3.20;99.90
8261;DHT22;64115;50.170;8.242;2023-02-26T06:22:10;-3.20;99.90
8261;DHT22;64115;50.170;8.242;2023-02-26T06:24:37;-3.30;99.90
8261;DHT22;64115;50.170;8.242;2023-02-26T06:27:04;-3.30;99.90
8261;DHT22;64115;50.170;8.242;2023-02-26T06:29:31;-3.20;99.90
8261;DHT22;64115;50.170;8.242;2023-02-26T06:31:59;-3.20;99.90
8261;DHT22;64115;50.170;8.242;2023-02-26T06:34:26;-3.20;99.90
8261;DHT22;64115;50.170;8.242;2023-02-26T06:36:54;-3.20;99.90
8261;DHT22;64115;50.170;8.242;2023-02-26T06:39:22;-3.20;99.90
8261;DHT22;64115;50.170;8.242;2023-02-26T06:41:49;-3.10;99.90
8261;DHT22;64115;50.170;8.242;2023-02-26T06:44:16;-3.10;99.90
8261;DHT22;64115;50.170;8.242;2023-02-26T06:46:43;-3.00;99.90
8261;DHT22;64115;50.170;8.242;2023-02-26T06:49:10;-2.80;99.90
8261;DHT22;64115;50.170;8.242;2023-02-26T06:51:37;-2.70;99.90
8261;DHT22;64115;50.170;8.242;2023-02-26T06:54:05;-2.70;99.90
8261;DHT22;64115;50.170;8.242;2023-02-26T06:56:32;-2.70;99.90
8261;DHT22;64115;50.170;8.242;2023-02-26T06:58:59;-2.70;99.90
8261;DHT22;64115;50.170;8.242;2023-02-26T07:01:26;-2.70;99.90
8261;DHT22;64115;50.170;8.242;2023-02-26T07:03:54;-2.60;99.90
8261;DHT22;64115;50.170;8.242;2023-02-26T07:06:20;-2.60;99.90
8261;DHT22;64115;50.170;8.242;2023-02-26T07:08:47;-2.70;99.90
8261;DHT22;64115;50.170;8.242;2023-02-26T07:11:16;-2.70;99.90
8261;DHT22;64115;50.170;8.242;2023-02-26T07:13:43;-2.80;99.90
8261;DHT22;64115;50.170;8.242;2023-02-26T07:16:10;-2.80;99.90
8261;DHT22;64115;50.170;8.242;2023-02-26T07:18:37;-2.80;99.90
8261;DHT22;64115;50.170;8.242;2023-02-26T07:21:04;-2.80;99.90
8261;DHT22;64115;50.170;8.242;2023-02-26T07:23:31;-2.80;99.90
8261;DHT22;64115;50.170;8.242;2023-02-26T07:25:58;-2.90;99.90
8261;DHT22;64115;50.170;8.242;2023-02-26T07:28:27;-2.90;99.90
8261;DHT22;64115;50.170;8.242;2023-02-26T07:30:54;-2.90;99.90
8261;DHT22;64115;50.170;8.242;2023-02-26T07:33:21;-2.80;99.90
8261;DHT22;64115;50.170;8.242;2023-02-26T07:35:49;-2.70;99.90
8261;DHT22;64115;50.170;8.242;2023-02-26T07:38:16;-2.70;99.90
8261;DHT22;64115;50.170;8.242;2023-02-26T07:40:43;-2.60;99.90
8261;DHT22;64115;50.170;8.242;2023-02-26T07:43:11;-2.50;99.90
8261;DHT22;64115;50.170;8.242;2023-02-26T07:45:39;-2.30;99.90
8261;DHT22;64115;50.170;8.242;2023-02-26T07:48:07;-2.30;99.90
8261;DHT22;64115;50.170;8.242;2023-02-26T07:50:34;-2.30;99.90
8261;DHT22;64115;50.170;8.242;2023-02-26T07:53:01;-2.40;99.90
8261;DHT22;64115;50.170;8.242;2023-02-26T07:55:28;-2.40;99.90
8261;DHT22;64115;50.170;8.242;2023-02-26T07:57:55;-2.50;99.90
8261;DHT22;64115;50.170;8.242;2023-02-26T08:00:22;-2.50;99.90
8261;DHT22;64115;50.170;8.242;2023-02-26T08:02:51;-2.50;99.90
8261;DHT22;64115;50.170;8.242;2023-02-26T08:05:18;-2.40;99.90
8261;DHT22;64115;50.170;8.242;2023-02-26T08:07:45;-2.30;99.90
8261;DHT22;64115;50.170;8.242;2023-02-26T08:10:12;-2.20;99.90
8261;DHT22;64115;50.170;8.242;2023-02-26T08:12:40;-2.40;99.90
8261;DHT22;64115;50.170;8.242;2023-02-26T08:15:07;-2.50;99.90
8261;DHT22;64115;50.170;8.242;2023-02-26T08:17:36;-2.50;99.90
8261;DHT22;64115;50.170;8.242;2023-02-26T08:20:06;-2.50;99.90
8261;DHT22;64115;50.170;8.242;2023-02-26T08:22:33;-2.50;99.90
8261;DHT22;64115;50.170;8.242;2023-02-26T08:25:00;-2.50;99.90
8261;DHT22;64115;50.170;8.242;2023-02-26T08:27:27;-2.40;99.90
8261;DHT22;64115;50.170;8.242;2023-02-26T08:29:54;-2.40;99.90
8261;DHT22;64115;50.170;8.242;2023-02-26T08:32:21;-2.40;99.90
8261;DHT22;64115;50.170;8.242;2023-02-26T08:34:48;-2.40;99.90
8261;DHT22;64115;50.170;8.242;2023-02-26T08:37:17;-2.30;99.90
8261;DHT22;64115;50.170;8.242;2023-02-26T08:39:46;-2.30;99.90
8261;DHT22;64115;50.170;8.242;2023-02-26T08:42:13;-2.30;99.90
8261;DHT22;64115;50.170;8.242;2023-02-26T08:44:41;-2.10;99.90
8261;DHT22;64115;50.170;8.242;2023-02-26T08:47:09;-1.80;99.90
8261;DHT22;64115;50.170;8.242;2023-02-26T08:49:36;-1.70;99.90
8261;DHT22;64115;50.170;8.242;2023-02-26T08:52:03;-1.60;99.90
8261;DHT22;64115;50.170;8.242;2023-02-26T08:54:31;-1.50;99.90
8261;DHT22;64115;50.170;8.242;2023-02-26T08:56:59;-1.50;99.90
8261;DHT22;64115;50.170;8.242;2023-02-26T08:59:26;-1.60;99.90
8261;DHT22;64115;50.170;8.242;2023-02-26T09:01:53;-1.70;99.90
8261;DHT22;64115;50.170;8.242;2023-02-26T09:04:20;-1.60;99.90
8261;DHT22;64115;50.170;8.242;2023-02-26T09:06:48;-1.60;99.90
8261;DHT22;64115;50.170;8.242;2023-02-26T09:09:15;-1.50;99.90
8261;DHT22;64115;50.170;8.242;2023-02-26T09:11:45;-1.50;99.90
8261;DHT22;64115;50.170;8.242;2023-02-26T09:14:12;-1.50;99.90
8261;DHT22;64115;50.170;8.242;2023-02-26T09:16:39;-1.60;99.90
8261;DHT22;64115;50.170;8.242;2023-02-26T09:19:06;-1.40;99.90
8261;DHT22;64115;50.170;8.242;2023-02-26T09:21:33;-1.70;99.90
8261;DHT22;64115;50.170;8.242;2023-02-26T09:24:01;-1.50;99.90
8261;DHT22;64115;50.170;8.242;2023-02-26T09:26:28;-1.60;99.90
8261;DHT22;64115;50.170;8.242;2023-02-26T09:28:56;-1.60;99.90
8261;DHT22;64115;50.170;8.242;2023-02-26T09:31:23;-1.60;99.90
8261;DHT22;64115;50.170;8.242;2023-02-26T09:33:50;-1.60;99.90
8261;DHT22;64115;50.170;8.242;2023-02-26T09:36:17;-1.70;99.90
8261;DHT22;64115;50.170;8.242;2023-02-26T09:38:44;-1.40;99.90
8261;DHT22;64115;50.170;8.242;2023-02-26T09:41:17;-1.20;99.90
8261;DHT22;64115;50.170;8.242;2023-02-26T09:46:47;-0.90;99.90
8261;DHT22;64115;50.170;8.242;2023-02-26T09:49:31;-0.60;99.90
8261;DHT22;64115;50.170;8.242;2023-02-26T09:52:05;-0.20;99.90
8261;DHT22;64115;50.170;8.242;2023-02-26T09:54:42;-0.60;99.90
8261;DHT22;64115;50.170;8.242;2023-02-26T09:57:17;-0.60;99.90
8261;DHT22;64115;50.170;8.242;2023-02-26T09:59:47;-0.40;99.90
8261;DHT22;64115;50.170;8.242;2023-02-26T10:02:19;-0.40;99.90
8261;DHT22;64115;50.170;8.242;2023-02-26T10:04:50;-0.30;99.90
8261;DHT22;64115;50.170;8.242;2023-02-26T10:07:27;-0.50;99.90
8261;DHT22;64115;50.170;8.242;2023-02-26T10:10:06;-0.70;99.90
8261;DHT22;64115;50.170;8.242;2023-02-26T10:12:36;-0.90;99.90
8261;DHT22;64115;50.170;8.242;2023-02-26T10:15:11;-0.70;99.90
8261;DHT22;64115;50.170;8.242;2023-02-26T10:17:53;-0.50;99.90
8261;DHT22;64115;50.170;8.242;2023-02-26T10:20:23;-0.40;99.90
8261;DHT22;64115;50.170;8.242;2023-02-26T10:22:56;-0.40;99.90
8261;DHT22;64115;50.170;8.242;2023-02-26T10:25:30;-0.40;99.90
8261;DHT22;64115;50.170;8.242;2023-02-26T10:28:05;-0.40;99.90
8261;DHT22;64115;50.170;8.242;2023-02-26T10:30:38;-0.20;99.90
8261;DHT22;64115;50.170;8.242;2023-02-26T10:33:16;-0.20;99.90
8261;DHT22;64115;50.170;8.242;2023-02-26T10:35:51;-0.20;99.90
8261;DHT22;64115;50.170;8.242;2023-02-26T10:38:22;0.00;99.90
8261;DHT22;64115;50.170;8.242;2023-02-26T10:40:54;-0.20;99.90
8261;DHT22;64115;50.170;8.242;2023-02-26T10:43:27;-0.60;99.90
8261;DHT22;64115;50.170;8.242;2023-02-26T10:46:06;-0.60;99.90
8261;DHT22;64115;50.170;8.242;2023-02-26T10:48:58;-0.60;99.90
8261;DHT22;64115;50.170;8.242;2023-02-26T10:51:33;-0.60;99.90
8261;DHT22;64115;50.170;8.242;2023-02-26T10:54:05;-0.60;99.90
8261;DHT22;64115;50.170;8.242;2023-02-26T10:56:38;-0.60;99.90
8261;DHT22;64115;50.170;8.242;2023-02-26T10:59:05;-0.70;99.90
8261;DHT22;64115;50.170;8.242;2023-02-26T11:01:33;-0.80;99.90
8261;DHT22;64115;50.170;8.242;2023-02-26T11:04:05;-0.80;99.90
8261;DHT22;64115;50.170;8.242;2023-02-26T11:06:36;-0.60;99.90
8261;DHT22;64115;50.170;8.242;2023-02-26T11:09:06;-0.20;99.90
8261;DHT22;64115;50.170;8.242;2023-02-26T11:11:42;0.10;99.90
8261;DHT22;64115;50.170;8.242;2023-02-26T11:14:11;0.40;99.90
8261;DHT22;64115;50.170;8.242;2023-02-26T11:16:47;0.40;99.90
8261;DHT22;64115;50.170;8.242;2023-02-26T11:19:20;0.20;99.90
8261;DHT22;64115;50.170;8.242;2023-02-26T11:21:50;0.40;99.90
8261;DHT22;64115;50.170;8.242;2023-02-26T11:24:23;1.00;99.90
8261;DHT22;64115;50.170;8.242;2023-02-26T11:26:54;1.10;99.90
8261;DHT22;64115;50.170;8.242;2023-02-26T11:29:22;0.90;99.90
8261;DHT22;64115;50.170;8.242;2023-02-26T11:31:51;0.90;99.90
8261;DHT22;64115;50.170;8.242;2023-02-26T11:34:23;0.50;99.90
8261;DHT22;64115;50.170;8.242;2023-02-26T11:36:51;0.50;99.90
8261;DHT22;64115;50.170;8.242;2023-02-26T11:39:22;0.50;99.90
8261;DHT22;64115;50.170;8.242;2023-02-26T11:41:51;0.40;99.90
8261;DHT22;64115;50.170;8.242;2023-02-26T11:44:20;0.10;99.90
8261;DHT22;64115;50.170;8.242;2023-02-26T11:46:52;-0.10;99.90
8261;DHT22;64115;50.170;8.242;2023-02-26T11:49:25;0.40;99.90
8261;DHT22;64115;50.170;8.242;2023-02-26T11:52:14;0.80;99.90
8261;DHT22;64115;50.170;8.242;2023-02-26T11:54:44;0.80;99.90
8261;DHT22;64115;50.170;8.242;2023-02-26T11:57:16;0.60;99.90
8261;DHT22;64115;50.170;8.242;2023-02-26T11:59:47;0.80;99.90
8261;DHT22;64115;50.170;8.242;2023-02-26T12:02:18;0.90;99.90
8261;DHT22;64115;50.170;8.242;2023-02-26T12:04:48;0.90;99.90
8261;DHT22;64115;50.170;8.242;2023-02-26T12:07:18;0.90;99.90
8261;DHT22;64115;50.170;8.242;2023-02-26T12:09:46;0.90;99.90
8261;DHT22;64115;50.170;8.242;2023-02-26T12:12:47;1.20;99.90
8261;DHT22;64115;50.170;8.242;2023-02-26T12:15:26;1.20;99.90
8261;DHT22;64115;50.170;8.242;2023-02-26T12:18:06;0.90;99.90
8261;DHT22;64115;50.170;8.242;2023-02-26T12:20:44;1.20;99.90
8261;DHT22;64115;50.170;8.242;2023-02-26T12:23:26;1.40;99.90
8261;DHT22;64115;50.170;8.242;2023-02-26T12:32:14;0.60;99.90
8261;DHT22;64115;50.170;8.242;2023-02-26T12:35:16;0.50;99.90
8261;DHT22;64115;50.170;8.242;2023-02-26T12:37:57;0.30;99.90
8261;DHT22;64115;50.170;8.242;2023-02-26T12:40:45;0.50;99.90
8261;DHT22;64115;50.170;8.242;2023-02-26T12:43:20;0.60;99.90
8261;DHT22;64115;50.170;8.242;2023-02-26T12:45:53;0.60;99.90
8261;DHT22;64115;50.170;8.242;2023-02-26T12:48:53;0.70;99.90
8261;DHT22;64115;50.170;8.242;2023-02-26T12:51:35;0.60;99.90
8261;DHT22;64115;50.170;8.242;2023-02-26T12:54:32;0.40;99.90
8261;DHT22;64115;50.170;8.242;2023-02-26T12:57:17;0.30;99.90
8261;DHT22;64115;50.170;8.242;2023-02-26T13:03:03;0.40;99.90
8261;DHT22;64115;50.170;8.242;2023-02-26T13:05:47;0.40;99.90
8261;DHT22;64115;50.170;8.242;2023-02-26T13:08:23;0.30;99.90
8261;DHT22;64115;50.170;8.242;2023-02-26T13:11:04;0.50;99.90
8261;DHT22;64115;50.170;8.242;2023-02-26T13:13:50;0.40;99.90
8261;DHT22;64115;50.170;8.242;2023-02-26T13:16:31;0.20;99.90
8261;DHT22;64115;50.170;8.242;2023-02-26T13:19:06;0.00;99.90
8261;DHT22;64115;50.170;8.242;2023-02-26T13:21:41;0.00;99.90
8261;DHT22;64115;50.170;8.242;2023-02-26T13:24:13;0.00;99.90
8261;DHT22;64115;50.170;8.242;2023-02-26T13:26:43;0.10;99.90
8261;DHT22;64115;50.170;8.242;2023-02-26T13:29:16;0.10;99.90
8261;DHT22;64115;50.170;8.242;2023-02-26T13:31:48;0.00;99.90
8261;DHT22;64115;50.170;8.242;2023-02-26T13:34:20;0.10;99.90
8261;DHT22;64115;50.170;8.242;2023-02-26T13:36:49;0.10;99.90
8261;DHT22;64115;50.170;8.242;2023-02-26T13:39:33;0.10;99.90
8261;DHT22;64115;50.170;8.242;2023-02-26T13:42:13;0.00;99.90
8261;DHT22;64115;50.170;8.242;2023-02-26T13:44:53;0.00;99.90
8261;DHT22;64115;50.170;8.242;2023-02-26T13:47:35;0.10;99.90
8261;DHT22;64115;50.170;8.242;2023-02-26T13:50:23;0.20;99.90
8261;DHT22;64115;50.170;8.242;2023-02-26T13:52:54;0.30;99.90
8261;DHT22;64115;50.170;8.242;2023-02-26T13:55:51;0.20;99.90
8261;DHT22;64115;50.170;8.242;2023-02-26T13:58:34;0.10;99.90
8261;DHT22;64115;50.170;8.242;2023-02-26T14:01:07;0.00;99.90
8261;DHT22;64115;50.170;8.242;2023-02-26T14:03:35;0.00;99.90
8261;DHT22;64115;50.170;8.242;2023-02-26T14:09:29;0.00;99.90
8261;DHT22;64115;50.170;8.242;2023-02-26T14:11:58;0.00;99.90
8261;DHT22;64115;50.170;8.242;2023-02-26T14:14:38;0.10;99.90
8261;DHT22;64115;50.170;8.242;2023-02-26T14:17:27;0.00;99.90
8261;DHT22;64115;50.170;8.242;2023-02-26T14:23:12;0.10;99.90
8261;DHT22;64115;50.170;8.242;2023-02-26T14:25:41;0.20;99.90
8261;DHT22;64115;50.170;8.242;2023-02-26T14:28:43;0.10;99.90
8261;DHT22;64115;50.170;8.242;2023-02-26T14:31:20;0.20;99.90
8261;DHT22;64115;50.170;8.242;2023-02-26T14:34:05;0.30;99.90
8261;DHT22;64115;50.170;8.242;2023-02-26T14:36:36;0.40;99.90
8261;DHT22;64115;50.170;8.242;2023-02-26T14:39:06;0.20;99.90
8261;DHT22;64115;50.170;8.242;2023-02-26T14:41:37;0.10;99.90
8261;DHT22;64115;50.170;8.242;2023-02-26T14:44:12;0.10;99.90
8261;DHT22;64115;50.170;8.242;2023-02-26T14:46:42;-0.10;99.90
8261;DHT22;64115;50.170;8.242;2023-02-26T14:49:16;-0.10;99.90
8261;DHT22;64115;50.170;8.242;2023-02-26T14:51:54;0.00;99.90
8261;DHT22;64115;50.170;8.242;2023-02-26T14:54:37;0.20;99.90
8261;DHT22;64115;50.170;8.242;2023-02-26T14:57:17;0.30;99.90
8261;DHT22;64115;50.170;8.242;2023-02-26T15:00:05;0.10;99.90
8261;DHT22;64115;50.170;8.242;2023-02-26T15:02:58;0.20;99.90
8261;DHT22;64115;50.170;8.242;2023-02-26T15:05:42;0.20;99.90
8261;DHT22;64115;50.170;8.242;2023-02-26T15:08:33;0.30;99.90
8261;DHT22;64115;50.170;8.242;2023-02-26T15:11:12;0.30;99.90
8261;DHT22;64115;50.170;8.242;2023-02-26T15:14:02;0.20;99.90
8261;DHT22;64115;50.170;8.242;2023-02-26T15:16:44;0.30;99.90
8261;DHT22;64115;50.170;8.242;2023-02-26T15:19:36;0.30;99.90
8261;DHT22;64115;50.170;8.242;2023-02-26T15:22:23;0.30;99.90
8261;DHT22;64115;50.170;8.242;2023-02-26T15:24:51;0.20;99.90
8261;DHT22;64115;50.170;8.242;2023-02-26T15:27:19;0.20;99.90
8261;DHT22;64115;50.170;8.242;2023-02-26T15:29:47;0.20;99.90
8261;DHT22;64115;50.170;8.242;2023-02-26T15:32:23;0.10;99.90
8261;DHT22;64115;50.170;8.242;2023-02-26T15:34:58;0.10;99.90
8261;DHT22;64115;50.170;8.242;2023-02-26T15:37:27;0.00;99.90
8261;DHT22;64115;50.170;8.242;2023-02-26T15:39:59;-0.10;99.90
8261;DHT22;64115;50.170;8.242;2023-02-26T15:42:33;-0.10;99.90
8261;DHT22;64115;50.170;8.242;2023-02-26T15:45:05;-0.30;99.90
8261;DHT22;64115;50.170;8.242;2023-02-26T15:47:34;-0.30;99.90
8261;DHT22;64115;50.170;8.242;2023-02-26T15:50:03;-0.40;99.90
8261;DHT22;64115;50.170;8.242;2023-02-26T15:52:30;-0.50;99.90
8261;DHT22;64115;50.170;8.242;2023-02-26T15:55:01;-0.40;99.90
8261;DHT22;64115;50.170;8.242;2023-02-26T15:57:29;-0.40;99.90
8261;DHT22;64115;50.170;8.242;2023-02-26T16:00:04;-0.50;99.90
8261;DHT22;64115;50.170;8.242;2023-02-26T16:02:33;-0.50;99.90
8261;DHT22;64115;50.170;8.242;2023-02-26T16:05:02;-0.60;99.90
8261;DHT22;64115;50.170;8.242;2023-02-26T16:07:29;-0.60;99.90
8261;DHT22;64115;50.170;8.242;2023-02-26T16:10:03;-0.60;99.90
8261;DHT22;64115;50.170;8.242;2023-02-26T16:12:35;-0.70;99.90
8261;DHT22;64115;50.170;8.242;2023-02-26T16:15:06;-0.70;99.90
8261;DHT22;64115;50.170;8.242;2023-02-26T16:17:40;-0.70;99.90
8261;DHT22;64115;50.170;8.242;2023-02-26T16:20:14;-0.80;99.90
8261;DHT22;64115;50.170;8.242;2023-02-26T16:22:44;-0.90;99.90
8261;DHT22;64115;50.170;8.242;2023-02-26T16:25:18;-0.80;99.90
8261;DHT22;64115;50.170;8.242;2023-02-26T16:27:48;-0.80;99.90
8261;DHT22;64115;50.170;8.242;2023-02-26T16:30:19;-0.80;99.90
8261;DHT22;64115;50.170;8.242;2023-02-26T16:32:52;-0.90;99.90
8261;DHT22;64115;50.170;8.242;2023-02-26T16:35:22;-0.90;99.90
8261;DHT22;64115;50.170;8.242;2023-02-26T16:37:52;-0.90;99.90
8261;DHT22;64115;50.170;8.242;2023-02-26T16:40:23;-0.90;99.90
8261;DHT22;64115;50.170;8.242;2023-02-26T16:42:53;-0.90;99.90